createdAt,value
2022-12-03T00:00:19.354Z,25.40
2022-12-03T00:02:22.355Z,26.00
2022-12-03T00:04:24.335Z,25.80
2022-12-03T00:06:27.985Z,24.75
2022-12-03T00:08:33.417Z,25.33
2022-12-03T00:10:36.268Z,26.65
2022-12-03T00:12:38.559Z,25.42
2022-12-03T00:14:44.583Z,26.38
2022-12-03T00:16:53.975Z,25.90
2022-12-03T00:18:55.813Z,26.70
2022-12-03T00:20:58.639Z,25.80
2022-12-03T00:23:01.479Z,26.27
2022-12-03T00:25:04.619Z,25.20
2022-12-03T00:27:06.566Z,25.42
2022-12-03T00:29:11.438Z,26.17
2022-12-03T00:31:14.302Z,25.27
2022-12-03T00:33:17.185Z,25.98
2022-12-03T00:35:25.856Z,26.00
2022-12-03T00:37:28.769Z,27.35
2022-12-03T00:39:30.657Z,26.88
2022-12-03T00:41:38.321Z,25.58
2022-12-03T00:43:47.002Z,25.85
2022-12-03T00:45:48.825Z,26.20
2022-12-03T00:47:51.733Z,26.38
2022-12-03T00:49:54.622Z,27.33
2022-12-03T00:51:59.385Z,28.10
2022-12-03T00:54:01.454Z,25.40
2022-12-03T00:56:03.353Z,27.42
2022-12-03T00:58:08.525Z,27.27
2022-12-03T01:00:12.723Z,28.30
2022-12-03T01:02:14.551Z,26.60
2022-12-03T01:04:17.561Z,25.65
2022-12-03T01:06:20.404Z,28.58
2022-12-03T01:08:22.212Z,26.40
2022-12-03T01:10:30.209Z,27.65
2022-12-03T01:12:32.075Z,26.23
2022-12-03T01:14:33.902Z,27.02
2022-12-03T01:16:37.379Z,26.55
2022-12-03T01:18:40.291Z,26.13
2022-12-03T01:20:43.158Z,26.80
2022-12-03T01:22:51.210Z,27.30
2022-12-03T01:24:53.291Z,26.42
2022-12-03T01:26:57.830Z,26.73
2022-12-03T01:29:00.097Z,26.73
2022-12-03T01:31:25.468Z,26.58
2022-12-03T01:33:28.442Z,28.20
2022-12-03T01:35:32.213Z,27.33
2022-12-03T01:37:34.092Z,26.08
2022-12-03T01:39:36.509Z,27.98
2022-12-03T01:41:39.252Z,25.83
2022-12-03T01:43:43.775Z,26.95
2022-12-03T01:45:46.625Z,26.33
2022-12-03T01:47:50.564Z,26.65
2022-12-03T01:50:01.909Z,27.60
2022-12-03T01:52:03.916Z,26.73
2022-12-03T01:54:06.811Z,26.95
2022-12-03T01:56:12.616Z,26.77
2022-12-03T01:58:17.034Z,25.00
2022-12-03T02:00:25.293Z,27.42
2022-12-03T02:02:32.307Z,25.52
2022-12-03T02:04:34.547Z,24.83
2022-12-03T02:06:36.344Z,26.08
2022-12-03T02:08:40.291Z,24.83
2022-12-03T02:10:42.194Z,25.67
2022-12-03T02:13:06.474Z,26.45
2022-12-03T02:15:11.488Z,26.20
2022-12-03T02:17:13.700Z,25.30
2022-12-03T02:19:26.763Z,24.67
2022-12-03T02:21:45.209Z,25.02
2022-12-03T02:23:55.737Z,24.30
2022-12-03T02:25:57.631Z,26.15
2022-12-03T02:28:01.011Z,25.80
2022-12-03T02:30:06.852Z,23.50
2022-12-03T02:32:08.775Z,25.55
2022-12-03T02:34:11.617Z,24.33
2022-12-03T02:36:13.543Z,24.02
2022-12-03T02:38:27.029Z,23.27
2022-12-03T02:40:32.640Z,25.08
2022-12-03T02:42:37.360Z,23.73
2022-12-03T02:44:39.554Z,23.70
2022-12-03T02:46:41.870Z,22.25
2022-12-03T02:48:44.715Z,23.17
2022-12-03T02:50:55.521Z,24.05
2022-12-03T02:53:01.647Z,24.17
2022-12-03T02:55:06.245Z,22.30
2022-12-03T02:57:08.207Z,22.10
2022-12-03T02:59:18.113Z,22.42
2022-12-03T03:01:20.391Z,22.45
2022-12-03T03:03:24.835Z,23.77
2022-12-03T03:05:32.333Z,22.77
2022-12-03T03:07:34.991Z,22.90
2022-12-03T03:09:38.131Z,22.40
2022-12-03T03:11:40.073Z,21.90
2022-12-03T03:13:42.111Z,22.25
2022-12-03T03:15:44.899Z,21.92
2022-12-03T03:17:47.890Z,21.15
2022-12-03T03:19:50.926Z,21.80
2022-12-03T03:21:55.151Z,21.23
2022-12-03T03:23:58.957Z,21.23
2022-12-03T03:26:13.495Z,20.05
2022-12-03T03:28:16.995Z,21.73
2022-12-03T03:30:20.927Z,19.85
2022-12-03T03:32:22.862Z,21.42
2022-12-03T03:34:27.583Z,21.42
2022-12-03T03:36:29.705Z,19.92
2022-12-03T03:38:32.737Z,20.67
2022-12-03T03:40:36.089Z,20.70
2022-12-03T03:42:38.627Z,20.10
2022-12-03T03:44:40.735Z,19.13
2022-12-03T03:46:43.290Z,18.85
2022-12-03T03:48:48.724Z,19.60
2022-12-03T03:50:53.406Z,19.48
2022-12-03T03:52:57.160Z,19.35
2022-12-03T03:54:59.315Z,20.13
2022-12-03T03:57:01.136Z,19.38
2022-12-03T03:59:04.329Z,19.17
2022-12-03T04:01:07.437Z,17.83
2022-12-03T04:03:11.001Z,17.75
2022-12-03T04:05:22.117Z,18.70
2022-12-03T04:07:25.064Z,18.27
2022-12-03T04:09:26.983Z,18.08
2022-12-03T04:11:47.516Z,18.10
2022-12-03T04:13:49.447Z,18.27
2022-12-03T04:15:51.275Z,17.52
2022-12-03T04:18:13.681Z,17.33
2022-12-03T04:20:15.542Z,18.65
2022-12-03T04:22:35.943Z,17.92
2022-12-03T04:24:38.803Z,17.55
2022-12-03T04:26:59.202Z,17.90
2022-12-03T04:29:07.141Z,16.30
2022-12-03T04:31:28.432Z,16.92
2022-12-03T04:33:49.085Z,17.25
2022-12-03T04:35:50.926Z,17.88
2022-12-03T04:37:52.728Z,16.48
2022-12-03T04:39:54.666Z,17.85
2022-12-03T04:42:02.522Z,17.75
2022-12-03T04:44:23.131Z,17.70
2022-12-03T04:46:26.043Z,17.35
2022-12-03T04:48:27.846Z,17.00
2022-12-03T04:50:29.635Z,16.90
2022-12-03T04:52:31.408Z,16.38
2022-12-03T04:54:33.312Z,17.83
2022-12-03T04:56:35.275Z,17.08
2022-12-03T04:58:38.120Z,17.58
2022-12-03T05:00:41.027Z,18.70
2022-12-03T05:02:48.753Z,17.65
2022-12-03T05:04:50.963Z,17.25
2022-12-03T05:06:53.069Z,16.67
2022-12-03T05:08:54.898Z,16.60
2022-12-03T05:10:56.722Z,16.83
2022-12-03T05:12:58.552Z,16.80
2022-12-03T05:15:01.445Z,18.15
2022-12-03T05:17:09.106Z,18.45
2022-12-03T05:19:11.001Z,19.08
2022-12-03T05:21:12.830Z,19.30
2022-12-03T05:23:14.978Z,17.70
2022-12-03T05:25:16.914Z,17.45
2022-12-03T05:27:23.899Z,18.30
2022-12-03T05:29:26.248Z,17.50
2022-12-03T05:31:29.190Z,17.48
2022-12-03T05:33:31.570Z,19.27
2022-12-03T05:35:33.414Z,17.13
2022-12-03T05:37:36.223Z,17.92
2022-12-03T05:39:39.076Z,17.60
2022-12-03T05:41:59.509Z,17.33
2022-12-03T05:44:01.447Z,17.60
2022-12-03T05:46:05.450Z,17.02
2022-12-03T05:48:12.620Z,18.40
2022-12-03T05:50:15.036Z,18.10
2022-12-03T05:52:16.911Z,17.67
2022-12-03T05:54:18.752Z,16.92
2022-12-03T05:56:20.570Z,18.60
2022-12-03T05:58:22.459Z,18.48
2022-12-03T06:00:30.536Z,18.02
2022-12-03T06:02:32.481Z,17.80
2022-12-03T06:04:35.410Z,17.35
2022-12-03T06:06:37.254Z,17.80
2022-12-03T06:08:39.057Z,17.80
2022-12-03T06:10:45.158Z,17.20
2022-12-03T06:12:51.149Z,18.17
2022-12-03T06:14:55.116Z,18.25
2022-12-03T06:16:58.372Z,17.92
2022-12-03T06:19:01.197Z,17.42
2022-12-03T06:21:04.193Z,17.20
2022-12-03T06:23:08.127Z,16.77
2022-12-03T06:25:10.626Z,19.02
2022-12-03T06:27:12.808Z,18.20
2022-12-03T06:29:14.612Z,18.13
2022-12-03T06:31:16.617Z,17.20
2022-12-03T06:33:18.569Z,17.10
2022-12-03T06:35:21.426Z,17.67
2022-12-03T06:37:23.241Z,17.45
2022-12-03T06:39:25.096Z,18.63
2022-12-03T06:41:28.050Z,18.23
2022-12-03T06:43:31.214Z,18.05
2022-12-03T06:45:33.012Z,16.95
2022-12-03T06:47:34.894Z,18.15
2022-12-03T06:49:36.796Z,18.90
2022-12-03T06:51:39.150Z,18.38
2022-12-03T06:53:42.056Z,17.95
2022-12-03T06:55:44.908Z,19.23
2022-12-03T06:57:46.736Z,18.58
2022-12-03T06:59:49.553Z,16.73
2022-12-03T07:01:52.507Z,17.13
2022-12-03T07:03:54.427Z,16.23
2022-12-03T07:05:56.201Z,16.70
2022-12-03T07:07:58.129Z,17.70
2022-12-03T07:10:00.226Z,16.00
2022-12-03T07:12:03.136Z,17.20
2022-12-03T07:14:07.211Z,15.80
2022-12-03T07:16:10.133Z,16.20
2022-12-03T07:18:12.051Z,17.63
2022-12-03T07:20:14.139Z,17.27
2022-12-03T07:22:16.002Z,17.67
2022-12-03T07:24:17.776Z,17.88
2022-12-03T07:26:19.700Z,18.45
2022-12-03T07:28:21.560Z,16.73
2022-12-03T07:30:27.905Z,17.38
2022-12-03T07:32:29.854Z,17.75
2022-12-03T07:34:32.702Z,16.02
2022-12-03T07:36:34.521Z,16.25
2022-12-03T07:38:36.436Z,16.48
2022-12-03T07:40:38.365Z,17.55
2022-12-03T07:42:40.234Z,16.15
2022-12-03T07:44:42.198Z,17.42
2022-12-03T07:46:44.166Z,16.65
2022-12-03T07:48:47.138Z,16.95
2022-12-03T07:50:50.092Z,16.45
2022-12-03T07:52:57.177Z,16.42
2022-12-03T07:54:59.095Z,18.20
2022-12-03T07:57:02.146Z,18.50
2022-12-03T07:59:04.185Z,18.15
2022-12-03T08:01:06.485Z,18.08
2022-12-03T08:03:15.020Z,16.77
2022-12-03T08:05:18.024Z,18.23
2022-12-03T08:07:20.935Z,17.48
2022-12-03T08:09:22.865Z,18.35
2022-12-03T08:11:29.251Z,19.60
2022-12-03T08:13:35.268Z,17.65
2022-12-03T08:15:40.763Z,17.83
2022-12-03T08:17:43.940Z,17.45
2022-12-03T08:19:48.257Z,17.70
2022-12-03T08:21:59.507Z,17.63
2022-12-03T08:24:19.826Z,17.33
2022-12-03T08:26:28.239Z,17.67
2022-12-03T08:28:32.151Z,17.48
2022-12-03T08:30:35.071Z,16.45
2022-12-03T08:32:38.026Z,16.55
2022-12-03T08:34:44.303Z,16.63
2022-12-03T08:36:47.401Z,16.30
2022-12-03T08:38:52.866Z,14.90
2022-12-03T08:40:55.884Z,16.00
2022-12-03T08:42:57.703Z,16.63
2022-12-03T08:45:32.239Z,17.13
2022-12-03T08:47:37.346Z,17.55
2022-12-03T08:49:41.267Z,17.67
2022-12-03T08:51:44.541Z,17.08
2022-12-03T08:54:05.245Z,16.77
2022-12-03T08:56:28.805Z,15.52
2022-12-03T08:58:52.007Z,15.75
2022-12-03T09:01:00.496Z,15.32
2022-12-03T09:03:03.569Z,15.50
2022-12-03T09:05:20.371Z,15.30
2022-12-03T09:07:22.317Z,15.55
2022-12-03T09:09:25.042Z,14.80
2022-12-03T09:11:27.041Z,14.77
2022-12-03T09:13:34.881Z,15.70
2022-12-03T09:15:36.860Z,16.00
2022-12-03T09:17:38.945Z,15.15
2022-12-03T09:19:46.277Z,15.63
2022-12-03T09:21:49.522Z,16.55
2022-12-03T09:23:56.630Z,16.20
2022-12-03T09:26:02.895Z,16.38
2022-12-03T09:28:04.872Z,16.85
2022-12-03T09:30:07.545Z,16.95
2022-12-03T09:32:15.224Z,16.52
2022-12-03T09:34:23.033Z,16.60
2022-12-03T09:36:24.966Z,17.60
2022-12-03T09:38:26.917Z,16.75
2022-12-03T09:40:32.017Z,15.63
2022-12-03T09:42:34.267Z,16.75
2022-12-03T09:44:37.227Z,16.15
2022-12-03T09:46:40.268Z,15.85
2022-12-03T09:48:43.213Z,16.42
2022-12-03T09:50:47.690Z,18.67
2022-12-03T09:52:51.992Z,15.32
2022-12-03T09:55:03.820Z,16.55
2022-12-03T09:59:18.170Z,16.20
2022-12-03T10:01:22.750Z,16.83
2022-12-03T10:03:30.098Z,16.85
2022-12-03T10:05:34.111Z,16.60
2022-12-03T10:07:37.693Z,16.88
2022-12-03T10:09:39.953Z,17.27
2022-12-03T10:11:41.877Z,17.35
2022-12-03T10:13:45.347Z,16.38
2022-12-03T10:15:49.005Z,16.92
2022-12-03T10:17:54.872Z,16.70
2022-12-03T10:19:57.976Z,17.13
2022-12-03T10:22:01.177Z,16.60
2022-12-03T10:24:23.097Z,18.20
2022-12-03T10:28:43.592Z,16.73
2022-12-03T10:30:56.040Z,16.88
2022-12-03T10:32:59.430Z,17.90
2022-12-03T10:35:26.169Z,16.00
2022-12-03T10:37:34.263Z,16.85
2022-12-03T10:40:03.238Z,17.58
2022-12-03T10:42:16.610Z,16.42
2022-12-03T10:44:23.842Z,18.75
2022-12-03T10:46:25.889Z,18.80
2022-12-03T10:48:28.015Z,18.77
2022-12-03T10:50:30.399Z,18.50
2022-12-03T10:52:33.535Z,18.67
2022-12-03T10:54:35.943Z,18.60
2022-12-03T10:56:38.988Z,19.40
2022-12-03T10:58:43.932Z,19.40
2022-12-03T11:00:48.342Z,18.75
2022-12-03T11:02:56.671Z,18.50
2022-12-03T11:05:00.169Z,20.23
2022-12-03T11:07:03.653Z,19.75
2022-12-03T11:09:09.085Z,19.95
2022-12-03T11:11:25.091Z,19.58
2022-12-03T11:13:44.479Z,20.27
2022-12-03T11:15:46.624Z,18.98
2022-12-03T11:17:53.617Z,20.05
2022-12-03T11:19:55.493Z,19.52
2022-12-03T11:22:07.399Z,19.75
2022-12-03T11:26:39.417Z,20.98
2022-12-03T11:28:47.302Z,19.70
2022-12-03T11:30:51.540Z,19.73
2022-12-03T11:33:01.397Z,20.25
2022-12-03T11:35:03.879Z,21.05
2022-12-03T11:37:11.652Z,19.98
2022-12-03T11:39:33.523Z,21.08
2022-12-03T11:41:36.663Z,20.55
2022-12-03T11:43:57.443Z,20.00
2022-12-03T11:46:09.453Z,20.95
2022-12-03T11:48:15.043Z,19.75
2022-12-03T11:50:27.310Z,23.83
2022-12-03T11:52:29.293Z,20.92
2022-12-03T11:54:35.721Z,21.27
2022-12-03T11:56:45.593Z,22.00
2022-12-03T11:58:48.028Z,23.88
2022-12-03T12:00:52.294Z,22.27
2022-12-03T12:02:58.991Z,23.13
2022-12-03T12:05:22.688Z,23.73
2022-12-03T12:07:36.943Z,21.80
2022-12-03T12:09:54.270Z,21.52
2022-12-03T12:12:40.941Z,21.02
2022-12-03T12:14:42.804Z,22.20
2022-12-03T12:16:55.469Z,21.48
2022-12-03T12:18:57.424Z,21.50
2022-12-03T12:21:37.839Z,21.48
2022-12-03T12:23:39.806Z,22.10
2022-12-03T12:25:42.726Z,24.10
2022-12-03T12:27:47.411Z,23.27
2022-12-03T12:29:57.986Z,21.00
2022-12-03T12:32:23.265Z,21.98
2022-12-03T12:34:26.088Z,21.92
2022-12-03T12:36:28.989Z,23.27
2022-12-03T12:38:32.991Z,21.98
2022-12-03T12:40:40.745Z,21.75
2022-12-03T12:42:52.510Z,21.08
2022-12-03T12:46:59.886Z,21.80
2022-12-03T12:49:11.612Z,21.15
2022-12-03T12:51:18.953Z,21.40
2022-12-03T12:53:31.999Z,21.38
2022-12-03T12:55:34.027Z,21.48
2022-12-03T12:57:35.889Z,21.17
2022-12-03T12:59:38.865Z,20.52
2022-12-03T13:01:42.575Z,20.35
2022-12-03T13:03:46.153Z,20.98
2022-12-03T13:05:49.766Z,20.55
2022-12-03T13:07:53.136Z,20.85
2022-12-03T13:09:57.271Z,22.83
2022-12-03T13:12:01.559Z,23.88
2022-12-03T13:14:22.400Z,23.20
2022-12-03T13:16:32.380Z,21.58
2022-12-03T13:18:49.935Z,21.25
2022-12-03T13:20:54.003Z,21.33
2022-12-03T13:22:57.529Z,22.70
2022-12-03T13:25:44.008Z,22.50
2022-12-03T13:27:46.989Z,21.88
2022-12-03T13:30:09.024Z,24.80
2022-12-03T13:32:19.892Z,23.67
2022-12-03T13:34:25.955Z,22.90
2022-12-03T13:36:40.792Z,23.15
2022-12-03T13:38:43.831Z,24.88
2022-12-03T13:40:57.786Z,24.02
2022-12-03T13:42:59.789Z,25.00
2022-12-03T13:45:03.025Z,24.60
2022-12-03T13:47:15.311Z,26.00
2022-12-03T13:49:21.775Z,24.33
2022-12-03T13:51:26.540Z,23.35
2022-12-03T13:53:33.761Z,23.60
2022-12-03T13:55:40.084Z,24.77
2022-12-03T13:57:43.994Z,24.85
2022-12-03T13:59:46.019Z,25.42
2022-12-03T14:01:48.087Z,23.58
2022-12-03T14:03:50.511Z,24.42
2022-12-03T14:05:53.422Z,25.23
2022-12-03T14:07:58.281Z,24.77
2022-12-03T14:10:00.348Z,25.60
2022-12-03T14:12:21.171Z,26.80
2022-12-03T14:14:23.141Z,23.95
2022-12-03T14:16:25.190Z,25.20
2022-12-03T14:18:27.136Z,27.13
2022-12-03T14:20:28.965Z,25.92
2022-12-03T14:22:31.814Z,28.58
2022-12-03T14:24:33.689Z,27.45
2022-12-03T14:26:35.583Z,28.73
2022-12-03T14:28:37.483Z,30.90
2022-12-03T14:30:39.451Z,30.00
2022-12-03T14:32:41.445Z,27.40
2022-12-03T14:34:44.323Z,25.80
2022-12-03T14:36:46.504Z,27.05
2022-12-03T14:38:48.663Z,26.77
2022-12-03T14:40:51.639Z,25.27
2022-12-03T14:42:54.436Z,25.50
2022-12-03T14:44:57.475Z,26.70
2022-12-03T14:46:59.401Z,25.60
2022-12-03T14:49:02.284Z,27.20
2022-12-03T14:51:04.119Z,25.98
2022-12-03T14:53:06.021Z,26.42
2022-12-03T14:55:08.304Z,26.73
2022-12-03T14:57:12.938Z,26.23
2022-12-03T14:59:14.857Z,27.92
2022-12-03T15:01:17.758Z,27.42
2022-12-03T15:03:22.866Z,26.92
2022-12-03T15:05:28.517Z,26.73
2022-12-03T15:07:32.236Z,28.10
2022-12-03T15:09:34.399Z,28.38
2022-12-03T15:11:41.392Z,30.52
2022-12-03T15:13:46.500Z,27.63
2022-12-03T15:15:48.426Z,27.42
2022-12-03T15:17:52.344Z,27.50
2022-12-03T15:19:59.025Z,27.80
2022-12-03T15:22:03.244Z,29.65
2022-12-03T15:24:08.309Z,28.23
2022-12-03T15:26:10.120Z,29.05
2022-12-03T15:28:12.124Z,29.10
2022-12-03T15:30:16.295Z,29.52
2022-12-03T15:32:18.217Z,27.65
2022-12-03T15:34:22.795Z,27.95
2022-12-03T15:36:25.109Z,31.33
2022-12-03T15:38:28.059Z,26.48
2022-12-03T15:40:30.341Z,29.60
2022-12-03T15:42:32.216Z,27.77
2022-12-03T15:44:34.366Z,30.10
2022-12-03T15:46:36.399Z,30.65
2022-12-03T15:48:38.268Z,33.15
2022-12-03T15:50:42.391Z,31.70
2022-12-03T15:52:44.404Z,31.23
2022-12-03T15:54:46.616Z,31.83
2022-12-03T15:56:52.730Z,31.85
2022-12-03T15:58:57.494Z,31.60
2022-12-03T16:01:02.401Z,31.45
2022-12-03T16:03:06.087Z,29.48
2022-12-03T16:05:13.302Z,31.42
2022-12-03T16:07:17.223Z,30.27
2022-12-03T16:09:23.761Z,30.27
2022-12-03T16:11:30.848Z,28.80
2022-12-03T16:13:32.781Z,28.17
2022-12-03T16:15:35.409Z,27.80
2022-12-03T16:17:37.363Z,29.85
2022-12-03T16:19:39.281Z,30.77
2022-12-03T16:21:41.175Z,29.13
2022-12-03T16:23:44.097Z,30.20
2022-12-03T16:25:48.980Z,30.05
2022-12-03T16:27:51.110Z,28.13
2022-12-03T16:29:53.401Z,30.02
2022-12-03T16:31:55.658Z,26.73
2022-12-03T16:33:58.592Z,29.05
2022-12-03T16:36:00.853Z,28.38
2022-12-03T16:38:02.830Z,30.05
2022-12-03T16:40:06.397Z,27.70
2022-12-03T16:42:15.458Z,29.27
2022-12-03T16:44:32.121Z,31.23
2022-12-03T16:46:38.193Z,30.77
2022-12-03T16:48:45.034Z,31.23
2022-12-03T16:50:48.986Z,30.08
2022-12-03T16:52:50.927Z,32.53
2022-12-03T16:54:54.792Z,31.33
2022-12-03T16:56:57.109Z,33.65
2022-12-03T16:59:02.271Z,32.80
2022-12-03T17:01:05.431Z,34.35
2022-12-03T17:03:08.418Z,33.25
2022-12-03T17:05:20.746Z,32.50
2022-12-03T17:07:22.607Z,31.85
2022-12-03T17:09:24.686Z,31.13
2022-12-03T17:11:27.605Z,29.50
2022-12-03T17:13:32.779Z,30.40
2022-12-03T17:15:34.833Z,31.13
2022-12-03T17:17:39.664Z,31.50
2022-12-03T17:19:42.386Z,32.65
2022-12-03T17:21:46.567Z,33.50
2022-12-03T17:23:56.363Z,32.63
2022-12-03T17:26:00.178Z,33.88
2022-12-03T17:28:02.690Z,34.13
2022-12-03T17:30:05.628Z,32.88
2022-12-03T17:32:08.332Z,33.85
2022-12-03T17:34:10.381Z,33.38
2022-12-03T17:36:15.444Z,34.05
2022-12-03T17:38:18.342Z,34.80
2022-12-03T17:40:21.512Z,34.42
2022-12-03T17:42:23.481Z,37.10
2022-12-03T17:44:25.428Z,47.88
2022-12-03T17:46:28.401Z,41.85
2022-12-03T17:48:31.495Z,39.10
2022-12-03T17:50:33.503Z,38.88
2022-12-03T17:52:35.407Z,40.15
2022-12-03T17:55:01.804Z,40.58
2022-12-03T17:59:06.986Z,39.80
2022-12-03T18:01:10.896Z,40.42
2022-12-03T18:03:12.836Z,42.15
2022-12-03T18:05:15.866Z,41.25
2022-12-03T18:07:18.770Z,41.45
2022-12-03T18:09:21.226Z,40.50
2022-12-03T18:11:26.903Z,42.45
2022-12-03T18:13:29.857Z,42.78
2022-12-03T18:15:33.773Z,40.90
2022-12-03T18:17:35.836Z,40.60
2022-12-03T18:19:56.102Z,38.90
2022-12-03T18:21:58.445Z,40.58
2022-12-03T18:24:02.453Z,40.17
2022-12-03T18:26:06.281Z,40.40
2022-12-03T18:28:08.210Z,40.40
2022-12-03T18:30:15.207Z,39.53
2022-12-03T18:32:28.328Z,39.20
2022-12-03T18:34:31.519Z,39.45
2022-12-03T18:36:36.309Z,37.78
2022-12-03T18:38:39.303Z,37.50
2022-12-03T18:40:42.924Z,38.45
2022-12-03T18:42:47.947Z,40.70
2022-12-03T18:44:52.418Z,40.50
2022-12-03T18:46:54.927Z,41.90
2022-12-03T18:49:03.302Z,40.75
2022-12-03T18:51:24.747Z,45.85
2022-12-03T18:53:27.079Z,43.53
2022-12-03T18:55:33.745Z,40.53
2022-12-03T18:57:38.284Z,38.78
2022-12-03T18:59:41.103Z,42.60
2022-12-03T19:01:43.242Z,41.88
2022-12-03T19:03:45.624Z,41.80
2022-12-03T19:05:47.648Z,40.53
2022-12-03T19:07:54.927Z,40.38
2022-12-03T19:09:57.699Z,38.80
2022-12-03T19:12:12.864Z,37.40
2022-12-03T19:14:17.007Z,37.63
2022-12-03T19:16:20.601Z,37.97
2022-12-03T19:18:25.580Z,38.30
2022-12-03T19:20:28.052Z,37.70
2022-12-03T19:22:31.421Z,37.30
2022-12-03T19:24:39.374Z,37.65
2022-12-03T19:26:42.941Z,37.50
2022-12-03T19:28:45.429Z,39.10
2022-12-03T19:31:11.909Z,37.60
2022-12-03T19:33:18.155Z,37.97
2022-12-03T19:35:22.044Z,38.20
2022-12-03T19:37:34.540Z,36.50
2022-12-03T19:39:37.468Z,37.72
2022-12-03T19:41:42.550Z,37.58
2022-12-03T19:43:53.476Z,39.30
2022-12-03T19:45:58.108Z,36.87
2022-12-03T19:48:01.563Z,37.10
2022-12-03T19:50:05.855Z,37.00
2022-12-03T19:52:08.271Z,38.67
2022-12-03T19:54:16.676Z,38.80
2022-12-03T19:56:21.856Z,36.30
2022-12-03T19:58:31.571Z,37.75
2022-12-03T20:00:40.965Z,38.60
2022-12-03T20:02:43.720Z,39.85
2022-12-03T20:04:46.094Z,42.47
2022-12-03T20:06:53.328Z,41.08
2022-12-03T20:08:57.993Z,43.25
2022-12-03T20:11:21.859Z,43.70
2022-12-03T20:13:26.183Z,44.72
2022-12-03T20:15:36.009Z,44.45
2022-12-03T20:17:38.328Z,41.97
2022-12-03T20:19:40.728Z,43.13
2022-12-03T20:21:44.210Z,43.58
2022-12-03T20:23:47.657Z,42.28
2022-12-03T20:25:50.004Z,43.35
2022-12-03T20:27:52.082Z,40.10
2022-12-03T20:29:54.647Z,41.22
2022-12-03T20:31:56.990Z,38.20
2022-12-03T20:34:02.623Z,37.83
2022-12-03T20:36:05.525Z,37.85
2022-12-03T20:38:09.234Z,37.78
2022-12-03T20:40:12.091Z,37.55
2022-12-03T20:42:14.413Z,36.58
2022-12-03T20:44:17.794Z,38.10
2022-12-03T20:46:26.518Z,38.45
2022-12-03T20:48:33.019Z,38.03
2022-12-03T20:50:37.919Z,35.22
2022-12-03T20:53:03.373Z,38.00
2022-12-03T20:55:07.892Z,38.45
2022-12-03T20:57:18.219Z,39.03
2022-12-03T20:59:22.571Z,34.85
2022-12-03T21:01:36.650Z,38.13
2022-12-03T21:03:54.392Z,37.83
2022-12-03T21:06:01.764Z,34.45
2022-12-03T21:08:04.049Z,35.28
2022-12-03T21:10:29.501Z,37.60
2022-12-03T21:12:32.771Z,37.05
2022-12-03T21:14:36.204Z,33.38
2022-12-03T21:19:10.748Z,38.80
2022-12-03T21:21:14.716Z,33.00
2022-12-03T21:23:17.137Z,34.65
2022-12-03T21:25:19.264Z,36.47
2022-12-03T21:27:29.420Z,35.28
2022-12-03T21:29:31.393Z,32.30
2022-12-03T21:31:33.432Z,33.80
2022-12-03T21:33:35.644Z,34.60
2022-12-03T21:35:45.468Z,38.88
2022-12-03T21:40:29.206Z,36.53
2022-12-03T21:43:02.459Z,40.10
2022-12-03T21:45:32.660Z,42.65
2022-12-03T21:53:46.242Z,44.83
2022-12-03T21:56:50.888Z,46.72
2022-12-03T21:59:09.907Z,45.45
2022-12-03T22:01:34.419Z,44.70
2022-12-03T22:03:37.693Z,47.60
2022-12-03T22:05:59.697Z,49.88
2022-12-03T22:10:44.333Z,51.67
2022-12-03T22:12:58.572Z,53.75
2022-12-03T22:15:20.487Z,51.28
2022-12-03T22:17:34.564Z,47.58
2022-12-03T22:20:37.553Z,50.90
2022-12-03T22:25:25.062Z,48.20
2022-12-03T22:27:30.091Z,46.42
2022-12-03T22:29:54.100Z,47.50
2022-12-03T22:32:06.774Z,46.85
2022-12-03T22:34:21.926Z,45.92
2022-12-03T22:36:27.866Z,44.38
2022-12-03T22:42:16.123Z,42.17
2022-12-03T22:44:47.185Z,44.85
2022-12-03T22:47:06.930Z,45.55
2022-12-03T22:49:23.997Z,40.97
2022-12-03T22:51:29.221Z,39.30
2022-12-03T22:53:37.175Z,39.53
2022-12-03T22:55:45.263Z,40.60
2022-12-03T22:57:48.540Z,38.72
2022-12-03T23:00:03.679Z,36.72
2022-12-03T23:02:30.709Z,38.95
2022-12-03T23:04:32.638Z,39.65
2022-12-03T23:10:08.493Z,34.78
2022-12-03T23:14:58.869Z,36.80
2022-12-03T23:17:11.713Z,36.65
2022-12-03T23:19:15.099Z,35.55
2022-12-03T23:21:37.404Z,36.42
2022-12-03T23:23:39.259Z,39.50
2022-12-03T23:26:11.675Z,39.20
2022-12-03T23:28:17.509Z,35.28
2022-12-03T23:30:19.491Z,38.97
2022-12-03T23:32:24.119Z,38.17
2022-12-03T23:34:40.389Z,38.50
2022-12-03T23:36:48.197Z,39.83
2022-12-03T23:38:51.260Z,40.15
2022-12-03T23:41:30.840Z,38.00
2022-12-03T23:43:34.194Z,33.85
2022-12-03T23:45:39.103Z,38.00
2022-12-03T23:47:58.282Z,33.25
2022-12-03T23:50:00.350Z,34.00
2022-12-03T23:52:06.126Z,33.65
2022-12-03T23:54:18.736Z,32.28
2022-12-03T23:56:24.028Z,31.77
2022-12-03T23:58:48.471Z,30.98
